createdAt,value
2022-08-05T00:18:21.481Z,99
2022-08-05T00:28:12.765Z,98
2022-08-05T00:38:13.455Z,98
2022-08-05T01:08:30.495Z,98
2022-08-05T01:18:14.749Z,99
2022-08-05T01:28:15.335Z,99
2022-08-05T01:38:19.546Z,100
2022-08-05T01:48:16.174Z,99
2022-08-05T02:08:20.072Z,99
2022-08-05T02:18:29.065Z,100
2022-08-05T02:28:19.656Z,99
2022-08-05T02:38:19.260Z,99
2022-08-05T02:48:18.551Z,100
2022-08-05T02:58:19.749Z,100
2022-08-05T03:08:19.581Z,100
2022-08-05T03:18:24.590Z,100
2022-08-05T03:28:21.118Z,100
2022-08-05T03:38:23.953Z,100
2022-08-05T03:48:21.973Z,100
2022-08-05T04:08:30.288Z,100
2022-08-05T04:18:25.456Z,100
2022-08-05T04:58:25.826Z,100
2022-08-05T05:08:26.771Z,100
2022-08-05T05:28:26.585Z,100
2022-08-05T05:38:27.731Z,100
2022-08-05T05:58:30.459Z,100
2022-08-05T06:08:31.722Z,100
2022-08-05T06:18:30.908Z,100
2022-08-05T06:38:35.698Z,100
2022-08-05T07:08:32.718Z,100
2022-08-05T07:38:35.609Z,100
2022-08-05T08:08:35.143Z,100
2022-08-05T08:18:35.549Z,100
2022-08-05T08:28:55.130Z,100
2022-08-05T08:38:37.568Z,100
2022-08-05T08:48:43.794Z,100
2022-08-05T08:49:08.168Z,100
2022-08-05T08:58:47.788Z,100
2022-08-05T09:08:43.673Z,100
2022-08-05T09:18:44.335Z,100
2022-08-05T09:28:45.371Z,100
2022-08-05T09:38:46.195Z,100
2022-08-05T09:48:55.261Z,100
2022-08-05T09:58:50.312Z,100
2022-08-05T10:08:50.264Z,100
2022-08-05T10:18:49.195Z,100
2022-08-05T10:28:50.206Z,100
2022-08-05T10:38:50.401Z,100
2022-08-05T10:48:52.456Z,100
2022-08-05T10:58:50.887Z,99
2022-08-05T11:08:51.851Z,97
2022-08-05T11:18:52.853Z,93
2022-08-05T11:28:52.940Z,87
2022-08-05T11:38:53.825Z,86
2022-08-05T11:48:54.511Z,85
2022-08-05T11:58:54.631Z,85
2022-08-05T12:08:55.559Z,81
2022-08-05T12:18:56.418Z,82
2022-08-05T12:38:57.057Z,86
2022-08-05T12:48:57.443Z,81
2022-08-05T12:59:02.612Z,83
2022-08-05T13:08:58.517Z,82
2022-08-05T13:38:59.984Z,79
2022-08-05T13:49:00.831Z,77
2022-08-05T13:59:00.439Z,78
2022-08-05T14:09:01.210Z,79
2022-08-05T14:19:04.346Z,78
2022-08-05T14:29:01.949Z,75
2022-08-05T14:39:02.971Z,72
2022-08-05T14:59:03.765Z,70
2022-08-05T15:09:04.057Z,69
2022-08-05T15:19:04.536Z,64
2022-08-05T15:29:05.361Z,60
2022-08-05T15:40:39.742Z,60
2022-08-05T15:49:10.732Z,59
2022-08-05T15:59:06.730Z,58
2022-08-05T16:09:06.809Z,59
2022-08-05T16:19:07.152Z,59
2022-08-05T16:29:07.687Z,59
2022-08-05T16:39:08.739Z,60
2022-08-05T16:49:08.867Z,62
2022-08-05T16:59:09.747Z,63
2022-08-05T17:09:10.209Z,63
2022-08-05T17:19:10.770Z,62
2022-08-05T17:29:10.894Z,62
2022-08-05T17:39:24.012Z,62
2022-08-05T17:49:11.929Z,64
2022-08-05T17:59:12.217Z,65
2022-08-05T18:09:14.506Z,65
2022-08-05T18:19:13.262Z,65
2022-08-05T18:49:14.684Z,67
2022-08-05T18:59:42.473Z,68
2022-08-05T19:09:15.606Z,69
2022-08-05T19:19:15.937Z,70
2022-08-05T19:29:16.350Z,71
2022-08-05T19:39:17.146Z,72
2022-08-05T19:49:17.722Z,73
2022-08-05T19:59:21.485Z,74
2022-08-05T20:09:17.837Z,76
2022-08-05T20:19:18.006Z,77
2022-08-05T20:29:27.008Z,78
2022-08-05T20:39:18.877Z,79
2022-08-05T20:49:24.290Z,80
2022-08-05T20:59:26.822Z,80
2022-08-05T21:09:21.802Z,81
2022-08-05T21:19:23.396Z,81
2022-08-05T21:29:23.550Z,82
2022-08-05T21:39:26.377Z,82
2022-08-05T22:09:25.078Z,83
2022-08-05T22:39:31.084Z,86
2022-08-05T22:59:42.825Z,87
2022-08-05T23:09:53.079Z,88
2022-08-05T23:19:28.856Z,89
2022-08-05T23:29:29.521Z,90
2022-08-05T23:39:32.373Z,90
2022-08-05T23:59:37.422Z,95
